Time;durP1;ratioP1;P1;durP2;ratioP2;P2;SDS_P1;SDS_P2;PMS_P1;PMS_P2;Temp;Humidity;BMP_temperature;BMP_pressure;BME280_temperature;BME280_humidity;BME280_pressure;Samples;Min_cycle;Max_cycle;Signal;HPM_P1;HPM_P2
2020/12/17 00:00:05;;;;;;;12.77;8.30;;;;;;;;;;5073469;28;20925;-78
2020/12/17 00:02:32;;;;;;;10.23;8.27;;;;;;;;;;5073231;28;20542;-75
2020/12/17 00:04:59;;;;;;;11.50;8.13;;;;;;;;;;5073168;28;20454;-76
2020/12/17 00:07:25;;;;;;;12.30;9.23;;;;;;;;;;5068281;28;20502;-76
2020/12/17 00:09:52;;;;;;;11.30;8.73;;;;;;;;;;5067924;28;21008;-76
2020/12/17 00:12:20;;;;;;;11.87;8.37;;;;;;;;;;5071038;28;20996;-78
2020/12/17 00:14:47;;;;;;;10.90;8.73;;;;;;;;;;5071125;28;20487;-77
2020/12/17 00:17:14;;;;;;;10.80;8.00;;;;;;;;;;5071237;28;20444;-76
2020/12/17 00:19:40;;;;;;;11.10;8.63;;;;;;;;;;5071966;28;20559;-78
2020/12/17 00:22:07;;;;;;;14.33;9.30;;;;;;;;;;5072690;28;20744;-77
2020/12/17 00:24:34;;;;;;;14.17;8.30;;;;;;;;;;5072802;28;20532;-77
2020/12/17 00:27:02;;;;;;;13.43;9.30;;;;;;;;;;5072660;28;20523;-76
2020/12/17 00:29:29;;;;;;;15.73;9.13;;;;;;;;;;5068302;28;20768;-76
2020/12/17 00:31:56;;;;;;;15.03;8.90;;;;;;;;;;5067445;28;21008;-78
2020/12/17 00:34:23;;;;;;;12.47;9.27;;;;;;;;;;5071114;28;20551;-76
2020/12/17 00:36:52;;;;;;;16.27;9.30;;;;;;;;;;5070362;28;20447;-77
2020/12/17 00:39:20;;;;;;;12.47;8.97;;;;;;;;;;5070596;28;20443;-77
2020/12/17 00:41:47;;;;;;;16.77;9.10;;;;;;;;;;5071312;28;20484;-77
2020/12/17 00:44:14;;;;;;;15.37;9.63;;;;;;;;;;5071987;28;20563;-77
2020/12/17 00:46:41;;;;;;;11.20;9.17;;;;;;;;;;5054883;28;20440;-76
2020/12/17 00:49:08;;;;;;;12.93;9.10;;;;;;;;;;5072452;28;20472;-77
2020/12/17 00:51:35;;;;;;;11.00;9.63;;;;;;;;;;5067753;28;20467;-77
2020/12/17 00:54:02;;;;;;;12.73;9.67;;;;;;;;;;5066834;28;20471;-77
2020/12/17 00:56:29;;;;;;;15.03;10.10;;;;;;;;;;5069893;28;20496;-77
2020/12/17 00:58:56;;;;;;;11.70;9.37;;;;;;;;;;5070297;28;20458;-77
2020/12/17 01:01:22;;;;;;;12.67;8.80;;;;;;;;;;5070605;28;20561;-76
2020/12/17 01:03:50;;;;;;;12.00;9.00;;;;;;;;;;5071002;28;20923;-76
2020/12/17 01:06:17;;;;;;;12.23;9.03;;;;;;;;;;5071862;28;20452;-76
2020/12/17 01:08:44;;;;;;;18.40;9.10;;;;;;;;;;5071649;28;20449;-77
2020/12/17 01:11:11;;;;;;;11.30;8.27;;;;;;;;;;5072183;28;20843;-76
2020/12/17 01:13:38;;;;;;;10.47;8.00;;;;;;;;;;5067836;28;20977;-77
2020/12/17 01:16:04;;;;;;;10.83;7.90;;;;;;;;;;5066854;28;20437;-76
2020/12/17 01:18:31;;;;;;;11.10;8.23;;;;;;;;;;5069157;28;20806;-75
2020/12/17 01:20:59;;;;;;;10.00;8.07;;;;;;;;;;5069907;28;20846;-76
2020/12/17 01:23:26;;;;;;;9.47;7.77;;;;;;;;;;5069866;28;20967;-77
2020/12/17 01:25:55;;;;;;;10.27;7.90;;;;;;;;;;5070465;28;20443;-76
2020/12/17 01:28:22;;;;;;;12.23;8.60;;;;;;;;;;5071771;28;20440;-76
2020/12/17 01:30:49;;;;;;;12.83;8.70;;;;;;;;;;5071884;28;20833;-76
2020/12/17 01:33:18;;;;;;;10.33;7.20;;;;;;;;;;5071438;28;20467;-77
2020/12/17 01:35:45;;;;;;;13.87;8.43;;;;;;;;;;5068005;28;20432;-76
2020/12/17 01:38:12;;;;;;;9.13;7.50;;;;;;;;;;5066299;28;20477;-76
2020/12/17 01:40:39;;;;;;;10.50;7.80;;;;;;;;;;5068925;28;20440;-77
2020/12/17 01:43:06;;;;;;;10.67;7.20;;;;;;;;;;5068945;28;20566;-77
2020/12/17 01:45:33;;;;;;;10.47;8.43;;;;;;;;;;5069523;28;20507;-76
2020/12/17 01:48:00;;;;;;;10.60;7.70;;;;;;;;;;5070086;28;20855;-77
2020/12/17 01:50:27;;;;;;;8.73;7.40;;;;;;;;;;5071315;28;20534;-77
2020/12/17 01:52:54;;;;;;;11.60;8.30;;;;;;;;;;5071513;28;20547;-77
2020/12/17 01:55:23;;;;;;;8.87;6.90;;;;;;;;;;5085374;28;20471;-77
2020/12/17 01:57:50;;;;;;;11.10;7.70;;;;;;;;;;5087803;28;20921;-76
2020/12/17 02:00:19;;;;;;;7.17;6.30;;;;;;;;;;5086017;28;20438;-77
2020/12/17 02:02:47;;;;;;;8.83;7.63;;;;;;;;;;5088855;28;20479;-77
2020/12/17 02:05:15;;;;;;;10.80;7.53;;;;;;;;;;5089371;28;20436;-77
2020/12/17 02:07:43;;;;;;;10.50;8.07;;;;;;;;;;5089593;28;20435;-76
2020/12/17 02:10:10;;;;;;;9.47;7.43;;;;;;;;;;5089887;28;20451;-77
2020/12/17 02:12:48;;;;;;;11.00;6.50;;;;;;;;;;5091811;28;20496;-77
2020/12/17 02:15:15;;;;;;;9.20;7.60;;;;;;;;;;5073594;28;20447;-77
2020/12/17 02:17:42;;;;;;;12.33;7.87;;;;;;;;;;5091478;28;20535;-77
2020/12/17 02:20:10;;;;;;;10.77;7.97;;;;;;;;;;5088123;28;21115;-77
2020/12/17 02:22:37;;;;;;;11.27;7.70;;;;;;;;;;5085775;28;20507;-77
2020/12/17 02:25:05;;;;;;;12.60;7.77;;;;;;;;;;5088633;28;20445;-77
2020/12/17 02:27:32;;;;;;;9.90;7.70;;;;;;;;;;5089002;28;20529;-77
2020/12/17 02:29:59;;;;;;;10.53;7.27;;;;;;;;;;5089334;28;20534;-75
2020/12/17 02:32:26;;;;;;;8.70;7.10;;;;;;;;;;5090099;28;20461;-77
2020/12/17 02:34:53;;;;;;;6.63;5.77;;;;;;;;;;5091197;28;20461;-76
2020/12/17 02:37:20;;;;;;;6.67;5.97;;;;;;;;;;5091161;28;20525;-76
2020/12/17 02:39:46;;;;;;;9.30;7.87;;;;;;;;;;5091045;28;20476;-77
2020/12/17 02:42:14;;;;;;;8.07;6.47;;;;;;;;;;5087693;28;20482;-77
2020/12/17 02:44:41;;;;;;;8.37;7.20;;;;;;;;;;5085231;28;20540;-77
2020/12/17 02:47:08;;;;;;;9.80;7.17;;;;;;;;;;5088488;28;20443;-76
2020/12/17 02:49:35;;;;;;;8.30;7.20;;;;;;;;;;5088605;28;20946;-77
2020/12/17 02:52:01;;;;;;;8.37;7.20;;;;;;;;;;5089139;28;20494;-77
2020/12/17 02:54:28;;;;;;;11.87;6.83;;;;;;;;;;5089119;28;20886;-76
2020/12/17 02:56:55;;;;;;;7.50;6.73;;;;;;;;;;5090855;28;20499;-78
2020/12/17 02:59:23;;;;;;;9.57;7.30;;;;;;;;;;5090986;28;20456;-76
2020/12/17 03:01:50;;;;;;;8.83;7.27;;;;;;;;;;5090974;28;20483;-76
2020/12/17 03:04:17;;;;;;;12.33;7.50;;;;;;;;;;5087945;28;20486;-77
2020/12/17 03:06:43;;;;;;;10.20;7.40;;;;;;;;;;5086949;28;20492;-76
2020/12/17 03:09:10;;;;;;;9.60;7.30;;;;;;;;;;5092052;28;20841;-76
2020/12/17 03:11:37;;;;;;;9.80;6.60;;;;;;;;;;5091931;28;20468;-76
2020/12/17 03:14:04;;;;;;;10.03;7.10;;;;;;;;;;5092583;28;20555;-76
2020/12/17 03:16:33;;;;;;;9.70;7.00;;;;;;;;;;5092801;28;20495;-76
2020/12/17 03:19:01;;;;;;;9.10;6.40;;;;;;;;;;5094394;28;20949;-76
2020/12/17 03:21:28;;;;;;;9.23;7.30;;;;;;;;;;5094287;28;20478;-77
2020/12/17 03:23:55;;;;;;;9.40;6.90;;;;;;;;;;5093955;28;20549;-76
2020/12/17 03:26:22;;;;;;;8.33;6.33;;;;;;;;;;5092042;28;20822;-77
2020/12/17 03:28:48;;;;;;;7.80;7.00;;;;;;;;;;5088435;28;20438;-77
2020/12/17 03:31:16;;;;;;;8.83;6.73;;;;;;;;;;5091689;28;20916;-77
2020/12/17 03:33:44;;;;;;;9.40;7.67;;;;;;;;;;5091721;28;20861;-76
2020/12/17 03:36:10;;;;;;;12.23;7.60;;;;;;;;;;5092185;28;20953;-76
2020/12/17 03:38:37;;;;;;;9.57;7.80;;;;;;;;;;5092059;28;20933;-76
2020/12/17 03:41:04;;;;;;;10.03;7.10;;;;;;;;;;5094044;28;20449;-76
2020/12/17 03:43:31;;;;;;;12.33;7.27;;;;;;;;;;5093948;28;20518;-77
2020/12/17 03:45:58;;;;;;;10.00;7.97;;;;;;;;;;5093746;28;20467;-76
2020/12/17 03:48:25;;;;;;;10.40;7.40;;;;;;;;;;5091890;28;20629;-78
2020/12/17 03:50:52;;;;;;;14.10;7.53;;;;;;;;;;5088140;28;21495;-76
2020/12/17 03:53:19;;;;;;;10.40;6.70;;;;;;;;;;5072540;28;20515;-76
2020/12/17 03:55:46;;;;;;;9.60;7.40;;;;;;;;;;5072832;28;20467;-76
2020/12/17 03:58:13;;;;;;;9.97;7.07;;;;;;;;;;5071450;28;20523;-77
2020/12/17 04:00:40;;;;;;;8.17;6.40;;;;;;;;;;5071693;28;20474;-76
2020/12/17 04:03:07;;;;;;;10.00;7.53;;;;;;;;;;5073250;28;20551;-76
2020/12/17 04:05:34;;;;;;;10.40;6.90;;;;;;;;;;5073292;28;20949;-76
2020/12/17 04:08:01;;;;;;;13.43;8.00;;;;;;;;;;5073139;28;20483;-77
2020/12/17 04:10:28;;;;;;;9.20;7.00;;;;;;;;;;5071678;28;21827;-76
2020/12/17 04:12:55;;;;;;;9.57;6.93;;;;;;;;;;5067183;28;20816;-76
2020/12/17 04:15:22;;;;;;;9.03;7.27;;;;;;;;;;5069843;28;20496;-77
2020/12/17 04:17:48;;;;;;;8.87;7.07;;;;;;;;;;5052194;28;20446;-77
2020/12/17 04:20:15;;;;;;;6.50;5.80;;;;;;;;;;5070769;28;20504;-76
2020/12/17 04:22:42;;;;;;;8.50;7.60;;;;;;;;;;5070654;28;21153;-77
2020/12/17 04:25:09;;;;;;;9.03;7.37;;;;;;;;;;5073069;28;20443;-76
2020/12/17 04:27:36;;;;;;;9.27;7.63;;;;;;;;;;5073108;28;20466;-77
2020/12/17 04:30:04;;;;;;;8.73;6.80;;;;;;;;;;5072951;28;20774;-76
2020/12/17 04:32:31;;;;;;;10.67;7.00;;;;;;;;;;5071498;28;20458;-77
2020/12/17 04:34:57;;;;;;;8.70;6.70;;;;;;;;;;5066779;28;20447;-77
2020/12/17 04:37:24;;;;;;;11.73;7.57;;;;;;;;;;5069081;28;20451;-77
2020/12/17 04:39:51;;;;;;;8.50;6.53;;;;;;;;;;5070378;28;20444;-77
2020/12/17 04:42:21;;;;;;;9.43;7.03;;;;;;;;;;5070427;28;20482;-76
2020/12/17 04:44:47;;;;;;;11.27;7.87;;;;;;;;;;5070340;28;20461;-77
2020/12/17 04:47:19;;;;;;;11.30;7.33;;;;;;;;;;5072299;28;20800;-77
2020/12/17 04:49:48;;;;;;;10.13;7.40;;;;;;;;;;5072431;28;20504;-76
2020/12/17 04:52:15;;;;;;;9.60;6.83;;;;;;;;;;5053680;28;20520;-77
2020/12/17 04:54:42;;;;;;;11.97;6.90;;;;;;;;;;5066424;28;20474;-77
2020/12/17 04:57:10;;;;;;;9.30;7.67;;;;;;;;;;5068475;28;20446;-76
2020/12/17 04:59:46;;;;;;;12.13;7.27;;;;;;;;;;5069615;28;21028;-76
2020/12/17 05:02:14;;;;;;;14.20;7.60;;;;;;;;;;5069869;28;20491;-75
2020/12/17 05:04:42;;;;;;;9.87;7.10;;;;;;;;;;5052191;28;20462;-76
2020/12/17 05:07:10;;;;;;;10.03;7.97;;;;;;;;;;5054408;28;20449;-76
2020/12/17 05:09:37;;;;;;;9.33;6.93;;;;;;;;;;5072036;28;20436;-76
2020/12/17 05:12:04;;;;;;;10.10;7.57;;;;;;;;;;5071921;28;20808;-76
2020/12/17 05:14:31;;;;;;;8.13;6.70;;;;;;;;;;5070552;28;20870;-76
2020/12/17 05:16:59;;;;;;;7.03;6.33;;;;;;;;;;5066182;28;20446;-77
2020/12/17 05:19:26;;;;;;;8.97;7.20;;;;;;;;;;5067701;28;20978;-77
2020/12/17 05:21:53;;;;;;;9.90;7.00;;;;;;;;;;5069370;28;21081;-76
2020/12/17 05:24:21;;;;;;;8.80;7.17;;;;;;;;;;5069248;28;21007;-76
2020/12/17 05:26:49;;;;;;;7.90;6.60;;;;;;;;;;5069391;28;20446;-77
2020/12/17 05:29:17;;;;;;;10.13;7.70;;;;;;;;;;5070967;28;21021;-77
2020/12/17 05:31:44;;;;;;;10.70;6.97;;;;;;;;;;5054069;28;20530;-77
2020/12/17 05:34:12;;;;;;;11.40;7.70;;;;;;;;;;5071636;28;20506;-78
2020/12/17 05:36:38;;;;;;;8.60;6.97;;;;;;;;;;5070418;28;20959;-77
2020/12/17 05:39:06;;;;;;;9.70;6.50;;;;;;;;;;5066031;28;20919;-77
2020/12/17 05:41:34;;;;;;;10.00;6.20;;;;;;;;;;5067372;28;20493;-77
2020/12/17 05:44:08;;;;;;;8.20;6.83;;;;;;;;;;5069455;28;20463;-77
2020/12/17 05:46:35;;;;;;;10.87;7.50;;;;;;;;;;5069465;28;20438;-77
2020/12/17 05:49:09;;;;;;;8.60;6.73;;;;;;;;;;5051518;28;20443;-75
2020/12/17 05:51:37;;;;;;;10.17;7.77;;;;;;;;;;5071238;28;20451;-77
2020/12/17 05:54:03;;;;;;;8.97;6.77;;;;;;;;;;5075108;28;20562;-76
2020/12/17 05:56:30;;;;;;;10.00;7.40;;;;;;;;;;5091391;28;20941;-76
2020/12/17 05:59:02;;;;;;;10.00;7.30;;;;;;;;;;5090453;28;20450;-76
2020/12/17 06:01:28;;;;;;;10.80;8.03;;;;;;;;;;5067417;28;20477;-76
2020/12/17 06:03:55;;;;;;;9.73;7.10;;;;;;;;;;5087909;28;20528;-76
2020/12/17 06:06:22;;;;;;;12.70;7.70;;;;;;;;;;5088888;28;20482;-76
2020/12/17 06:08:52;;;;;;;9.03;7.13;;;;;;;;;;5089827;28;20449;-76
2020/12/17 06:11:22;;;;;;;9.20;7.10;;;;;;;;;;5071712;28;20442;-76
2020/12/17 06:13:53;;;;;;;8.37;6.90;;;;;;;;;;5091308;28;20495;-75
2020/12/17 06:16:21;;;;;;;9.30;7.33;;;;;;;;;;5091399;28;20528;-76
2020/12/17 06:18:49;;;;;;;8.60;7.70;;;;;;;;;;5091159;28;20498;-77
2020/12/17 06:21:16;;;;;;;10.27;7.60;;;;;;;;;;5090051;28;20443;-77
2020/12/17 06:23:43;;;;;;;8.43;7.43;;;;;;;;;;5085451;28;20482;-76
2020/12/17 06:26:11;;;;;;;8.70;7.50;;;;;;;;;;5087525;28;20835;-76
2020/12/17 06:28:45;;;;;;;12.10;8.50;;;;;;;;;;5070900;28;20445;-76
2020/12/17 06:31:15;;;;;;;9.13;7.03;;;;;;;;;;5089078;28;20446;-76
2020/12/17 06:33:42;;;;;;;11.23;7.10;;;;;;;;;;5089407;28;20551;-77
2020/12/17 06:36:10;;;;;;;10.30;7.73;;;;;;;;;;5091380;28;20488;-77
2020/12/17 06:38:39;;;;;;;8.93;8.03;;;;;;;;;;5091208;28;20904;-77
2020/12/17 06:41:22;;;;;;;10.70;7.33;;;;;;;;;;5092284;28;20530;-76
2020/12/17 06:43:50;;;;;;;10.93;8.50;;;;;;;;;;5077395;28;20487;-77
2020/12/17 06:46:31;;;;;;;9.50;7.40;;;;;;;;;;5071204;28;20457;-76
2020/12/17 06:48:58;;;;;;;11.53;8.73;;;;;;;;;;5091522;28;20447;-77
2020/12/17 06:51:33;;;;;;;9.20;7.97;;;;;;;;;;5092608;28;20438;-76
2020/12/17 06:54:01;;;;;;;10.50;7.83;;;;;;;;;;5089018;28;20550;-76
2020/12/17 06:56:28;;;;;;;9.13;7.73;;;;;;;;;;5072856;28;20463;-76
2020/12/17 06:59:09;;;;;;;10.37;8.80;;;;;;;;;;5056935;28;20500;-77
2020/12/17 07:01:38;;;;;;;9.80;7.80;;;;;;;;;;5072127;28;20440;-76
2020/12/17 07:04:05;;;;;;;15.00;8.37;;;;;;;;;;5068403;28;20459;-76
2020/12/17 07:06:31;;;;;;;11.07;8.60;;;;;;;;;;5069970;28;20448;-76
2020/12/17 07:08:59;;;;;;;12.30;9.10;;;;;;;;;;5071756;28;20444;-77
2020/12/17 07:11:41;;;;;;;9.80;8.80;;;;;;;;;;5054646;28;20455;-77
2020/12/17 07:14:09;;;;;;;9.33;8.40;;;;;;;;;;5056591;28;20460;-77
2020/12/17 07:16:37;;;;;;;11.80;9.07;;;;;;;;;;5073096;28;20443;-77
2020/12/17 07:19:19;;;;;;;12.00;8.60;;;;;;;;;;5073059;28;20906;-77
2020/12/17 07:21:46;;;;;;;9.23;8.27;;;;;;;;;;5056285;28;20932;-77
2020/12/17 07:24:21;;;;;;;12.00;8.93;;;;;;;;;;5072923;28;20464;-76
2020/12/17 07:26:49;;;;;;;12.90;8.80;;;;;;;;;;5067163;28;20450;-77
2020/12/17 07:29:16;;;;;;;8.53;7.67;;;;;;;;;;5069900;28;20497;-75
2020/12/17 07:31:44;;;;;;;12.87;10.07;;;;;;;;;;5071556;28;20473;-77
2020/12/17 07:34:15;;;;;;;12.27;9.57;;;;;;;;;;5071125;28;20471;-76
2020/12/17 07:36:43;;;;;;;11.27;9.53;;;;;;;;;;5072167;28;20832;-77
2020/12/17 07:39:10;;;;;;;10.93;8.53;;;;;;;;;;5056012;28;20446;-76
2020/12/17 07:41:37;;;;;;;12.67;9.13;;;;;;;;;;5072905;28;20446;-76
2020/12/17 07:44:04;;;;;;;12.27;8.33;;;;;;;;;;5073015;28;20470;-75
2020/12/17 07:46:34;;;;;;;10.20;9.00;;;;;;;;;;5071982;28;20451;-81
2020/12/17 07:49:03;;;;;;;9.57;7.73;;;;;;;;;;5067411;28;20436;-76
2020/12/17 07:51:32;;;;;;;10.80;8.43;;;;;;;;;;5071016;28;20497;-76
2020/12/17 07:54:03;;;;;;;10.40;9.00;;;;;;;;;;5067906;28;20558;-79
2020/12/17 07:56:29;;;;;;;7.63;5.67;;;;;;;;;;5064115;28;20436;-77
2020/12/17 07:58:56;;;;;;;7.90;6.10;;;;;;;;;;5080157;28;20958;-76
2020/12/17 08:01:23;;;;;;;10.93;5.40;;;;;;;;;;5086925;28;20561;-79
2020/12/17 08:03:51;;;;;;;7.40;5.63;;;;;;;;;;5088148;28;20489;-77
2020/12/17 08:06:19;;;;;;;6.60;5.00;;;;;;;;;;5090118;28;20495;-76
2020/12/17 08:08:46;;;;;;;8.33;4.50;;;;;;;;;;5089901;28;20582;-77
2020/12/17 08:11:13;;;;;;;4.30;3.90;;;;;;;;;;5090692;28;20466;-77
2020/12/17 08:13:40;;;;;;;5.37;4.30;;;;;;;;;;5090713;28;20967;-76
2020/12/17 08:16:08;;;;;;;4.70;3.33;;;;;;;;;;5092657;28;20492;-76
2020/12/17 08:18:36;;;;;;;5.30;3.83;;;;;;;;;;5092524;28;20526;-77
2020/12/17 08:21:04;;;;;;;4.53;3.90;;;;;;;;;;5072559;28;20463;-77
2020/12/17 08:23:33;;;;;;;3.77;3.40;;;;;;;;;;5061241;28;20562;-76
2020/12/17 08:26:01;;;;;;;5.33;3.50;;;;;;;;;;5071668;28;20487;-79
2020/12/17 08:28:29;;;;;;;6.30;3.80;;;;;;;;;;5090169;28;20483;-78
2020/12/17 08:31:02;;;;;;;5.70;3.40;;;;;;;;;;5073092;28;20443;-77
2020/12/17 08:33:29;;;;;;;4.67;3.03;;;;;;;;;;5091323;28;20502;-78
2020/12/17 08:36:01;;;;;;;3.67;2.83;;;;;;;;;;5091120;28;20849;-76
2020/12/17 08:38:28;;;;;;;2.93;2.60;;;;;;;;;;5092489;28;20558;-78
2020/12/17 08:40:56;;;;;;;3.77;2.93;;;;;;;;;;5094152;28;20449;-76
2020/12/17 08:43:26;;;;;;;3.97;3.00;;;;;;;;;;5075442;28;20530;-77
2020/12/17 08:45:54;;;;;;;5.20;3.10;;;;;;;;;;5089554;28;20863;-78
2020/12/17 08:48:23;;;;;;;3.50;3.20;;;;;;;;;;5072034;28;20453;-77
2020/12/17 08:50:50;;;;;;;7.23;3.50;;;;;;;;;;5091479;28;20475;-76
2020/12/17 08:53:21;;;;;;;3.50;3.00;;;;;;;;;;5091171;28;20456;-77
2020/12/17 08:56:01;;;;;;;5.07;3.67;;;;;;;;;;5091784;28;20502;-77
2020/12/17 08:58:29;;;;;;;3.70;3.40;;;;;;;;;;5071337;28;20452;-78
2020/12/17 09:00:56;;;;;;;4.83;4.07;;;;;;;;;;5072762;28;20954;-77
2020/12/17 09:03:25;;;;;;;3.97;3.57;;;;;;;;;;5092771;28;21021;-78
2020/12/17 09:06:07;;;;;;;5.33;3.23;;;;;;;;;;5092822;28;20447;-78
2020/12/17 09:08:34;;;;;;;4.57;3.43;;;;;;;;;;5073538;28;20432;-76
2020/12/17 09:11:02;;;;;;;4.20;2.93;;;;;;;;;;5089983;28;21021;-76
2020/12/17 09:13:29;;;;;;;2.70;2.23;;;;;;;;;;5090779;28;20458;-78
2020/12/17 09:16:00;;;;;;;3.20;2.90;;;;;;;;;;5090822;28;20431;-77
2020/12/17 09:18:28;;;;;;;2.63;2.43;;;;;;;;;;5091256;28;20447;-78
2020/12/17 09:21:07;;;;;;;3.70;2.60;;;;;;;;;;5092824;28;20451;-78
2020/12/17 09:23:35;;;;;;;4.73;3.03;;;;;;;;;;5093044;28;20521;-76
2020/12/17 09:26:17;;;;;;;3.20;2.50;;;;;;;;;;5074878;28;20450;-77
2020/12/17 09:28:53;;;;;;;6.33;3.30;;;;;;;;;;5076102;28;20532;-77
2020/12/17 09:31:35;;;;;;;9.53;3.50;;;;;;;;;;5069619;28;20439;-78
2020/12/17 09:34:11;;;;;;;4.30;3.57;;;;;;;;;;5074263;28;20534;-78
2020/12/17 09:36:40;;;;;;;6.53;3.10;;;;;;;;;;5072647;28;20850;-76
2020/12/17 09:39:09;;;;;;;4.73;3.57;;;;;;;;;;5090302;28;20453;-77
2020/12/17 09:41:37;;;;;;;6.73;3.53;;;;;;;;;;5069960;28;20836;-78
2020/12/17 09:44:05;;;;;;;4.90;4.10;;;;;;;;;;5088438;28;20479;-77
2020/12/17 09:46:47;;;;;;;4.17;2.90;;;;;;;;;;5071104;28;20454;-76
2020/12/17 09:49:29;;;;;;;4.30;2.53;;;;;;;;;;5070847;28;20529;-77
2020/12/17 09:51:59;;;;;;;2.67;2.47;;;;;;;;;;5070985;28;20444;-77
2020/12/17 09:54:27;;;;;;;3.97;3.17;;;;;;;;;;5088640;28;20470;-77
2020/12/17 09:57:04;;;;;;;4.30;2.50;;;;;;;;;;5075084;28;20456;-79
2020/12/17 09:59:32;;;;;;;4.80;3.00;;;;;;;;;;5050754;28;20529;-79
2020/12/17 10:02:00;;;;;;;3.90;2.83;;;;;;;;;;5072332;28;20493;-78
2020/12/17 10:04:27;;;;;;;3.30;2.57;;;;;;;;;;5090415;28;20981;-78
2020/12/17 10:06:55;;;;;;;8.07;3.83;;;;;;;;;;5087455;28;20435;-78
2020/12/17 10:09:23;;;;;;;5.80;3.27;;;;;;;;;;5089088;28;20489;-77
2020/12/17 10:11:50;;;;;;;5.70;3.63;;;;;;;;;;5072247;28;20458;-78
2020/12/17 10:14:17;;;;;;;4.60;3.30;;;;;;;;;;5089891;28;20495;-77
2020/12/17 10:16:45;;;;;;;2.67;2.47;;;;;;;;;;5086288;28;20467;-78
2020/12/17 10:19:12;;;;;;;2.57;1.93;;;;;;;;;;5079469;28;20534;-77
2020/12/17 10:21:39;;;;;;;1.80;1.60;;;;;;;;;;5058665;28;20805;-79
2020/12/17 10:24:07;;;;;;;3.33;1.67;;;;;;;;;;5094619;28;20987;-78
2020/12/17 10:26:34;;;;;;;1.87;1.70;;;;;;;;;;5095611;28;20542;-77
2020/12/17 10:29:02;;;;;;;1.73;1.50;;;;;;;;;;5091188;28;20443;-78
2020/12/17 10:31:29;;;;;;;2.27;1.60;;;;;;;;;;5093064;28;20520;-78
2020/12/17 10:33:57;;;;;;;2.27;1.90;;;;;;;;;;5093724;28;20466;-78
2020/12/17 10:36:24;;;;;;;1.67;1.50;;;;;;;;;;5076324;28;20446;-80
2020/12/17 10:38:52;;;;;;;7.53;2.07;;;;;;;;;;5093364;28;20562;-78
2020/12/17 10:41:24;;;;;;;2.57;1.60;;;;;;;;;;5095919;28;20526;-78
2020/12/17 10:43:51;;;;;;;3.20;1.53;;;;;;;;;;5090307;28;20484;-77
2020/12/17 10:46:19;;;;;;;2.20;1.60;;;;;;;;;;5095663;28;20518;-81
2020/12/17 10:48:46;;;;;;;3.23;1.40;;;;;;;;;;5095808;28;20439;-80
2020/12/17 10:51:14;;;;;;;1.80;1.50;;;;;;;;;;5090572;28;20454;-79
2020/12/17 10:53:42;;;;;;;2.03;1.63;;;;;;;;;;5091441;28;20474;-78
2020/12/17 10:56:10;;;;;;;6.03;1.93;;;;;;;;;;5054938;28;20511;-79
2020/12/17 10:58:37;;;;;;;2.23;1.60;;;;;;;;;;5088969;28;20454;-79
2020/12/17 11:01:05;;;;;;;2.33;1.90;;;;;;;;;;5091511;28;20439;-78
2020/12/17 11:03:35;;;;;;;5.00;1.40;;;;;;;;;;5086992;28;20502;-78
2020/12/17 11:06:03;;;;;;;2.20;1.60;;;;;;;;;;5088751;28;20450;-77
2020/12/17 11:08:31;;;;;;;2.43;1.70;;;;;;;;;;5090887;28;20563;-77
2020/12/17 11:10:57;;;;;;;1.73;1.60;;;;;;;;;;5090152;28;20447;-78
2020/12/17 11:13:25;;;;;;;1.60;1.50;;;;;;;;;;5088882;28;20561;-75
2020/12/17 11:15:52;;;;;;;1.67;1.53;;;;;;;;;;5091854;28;20889;-76
2020/12/17 11:18:19;;;;;;;5.60;1.77;;;;;;;;;;5092146;28;20790;-77
2020/12/17 11:20:46;;;;;;;4.07;1.87;;;;;;;;;;5092188;28;20450;-78
2020/12/17 11:23:12;;;;;;;5.43;2.00;;;;;;;;;;5091297;28;20997;-77
2020/12/17 11:25:40;;;;;;;5.60;2.33;;;;;;;;;;5087477;28;20447;-78
2020/12/17 11:28:07;;;;;;;3.30;2.10;;;;;;;;;;5088132;28;20439;-79
2020/12/17 11:30:35;;;;;;;5.77;1.90;;;;;;;;;;5071312;28;20907;-77
2020/12/17 11:33:02;;;;;;;3.00;2.30;;;;;;;;;;5089539;28;20471;-76
2020/12/17 11:35:29;;;;;;;3.83;1.97;;;;;;;;;;5089570;28;20503;-79
2020/12/17 11:37:56;;;;;;;7.20;2.23;;;;;;;;;;5086005;28;20500;-75
2020/12/17 11:40:23;;;;;;;4.93;1.73;;;;;;;;;;5092006;28;20446;-76
2020/12/17 11:42:51;;;;;;;2.70;1.70;;;;;;;;;;5090945;28;20483;-78
2020/12/17 11:45:17;;;;;;;3.33;1.97;;;;;;;;;;5073264;28;20531;-75
2020/12/17 11:47:44;;;;;;;6.03;2.33;;;;;;;;;;5086783;28;20446;-80
2020/12/17 11:50:12;;;;;;;3.10;2.03;;;;;;;;;;5088291;28;20501;-77
2020/12/17 11:52:39;;;;;;;3.10;1.83;;;;;;;;;;5090772;28;20448;-78
2020/12/17 11:55:07;;;;;;;2.83;1.80;;;;;;;;;;5092097;28;20874;-78
2020/12/17 11:57:34;;;;;;;3.00;1.60;;;;;;;;;;5091991;28;20446;-77
2020/12/17 12:00:02;;;;;;;1.40;1.23;;;;;;;;;;5092111;28;20487;-77
2020/12/17 12:02:29;;;;;;;2.53;1.40;;;;;;;;;;5094431;28;20513;-78
2020/12/17 12:04:56;;;;;;;2.10;1.73;;;;;;;;;;5093669;28;20436;-79
2020/12/17 12:07:24;;;;;;;2.80;1.77;;;;;;;;;;5094394;28;20450;-78
2020/12/17 12:09:50;;;;;;;3.63;2.00;;;;;;;;;;5092060;28;20443;-77
2020/12/17 12:12:17;;;;;;;2.67;1.60;;;;;;;;;;5088998;28;20438;-77
2020/12/17 12:14:44;;;;;;;3.53;1.80;;;;;;;;;;5090695;28;20520;-78
2020/12/17 12:17:12;;;;;;;2.47;1.47;;;;;;;;;;5091855;28;20489;-76
2020/12/17 12:19:39;;;;;;;1.73;1.53;;;;;;;;;;5092114;28;20444;-77
2020/12/17 12:22:06;;;;;;;1.90;1.50;;;;;;;;;;5092883;28;20453;-77
2020/12/17 12:24:33;;;;;;;2.97;1.43;;;;;;;;;;5094159;28;20551;-77
2020/12/17 12:27:00;;;;;;;3.53;1.70;;;;;;;;;;5094277;28;20807;-77
2020/12/17 12:29:27;;;;;;;3.03;2.37;;;;;;;;;;5094177;28;20485;-76
2020/12/17 12:31:54;;;;;;;4.60;2.30;;;;;;;;;;5092657;28;20537;-78
2020/12/17 12:34:22;;;;;;;3.77;2.53;;;;;;;;;;5089698;28;20496;-78
2020/12/17 12:36:50;;;;;;;3.20;2.53;;;;;;;;;;5090829;28;20479;-78
2020/12/17 12:39:17;;;;;;;4.33;1.80;;;;;;;;;;5091349;28;20443;-78
2020/12/17 12:41:45;;;;;;;3.73;1.80;;;;;;;;;;5091612;28;20503;-79
2020/12/17 12:44:13;;;;;;;6.03;1.60;;;;;;;;;;5091745;28;20508;-78
2020/12/17 12:46:39;;;;;;;3.77;1.70;;;;;;;;;;5076270;28;20530;-77
2020/12/17 12:49:06;;;;;;;2.67;1.67;;;;;;;;;;5093501;28;20466;-77
2020/12/17 12:51:34;;;;;;;2.47;1.70;;;;;;;;;;5093720;28;20866;-78
2020/12/17 12:54:02;;;;;;;2.80;1.70;;;;;;;;;;5090949;28;20975;-79
2020/12/17 12:56:29;;;;;;;1.80;1.43;;;;;;;;;;5068610;28;20441;-81
2020/12/17 12:58:56;;;;;;;4.17;2.60;;;;;;;;;;5048299;28;20449;-78
2020/12/17 13:01:23;;;;;;;4.40;1.63;;;;;;;;;;5060238;28;20444;-77
2020/12/17 13:03:50;;;;;;;4.83;2.37;;;;;;;;;;5070768;28;20476;-77
2020/12/17 13:06:19;;;;;;;8.00;2.83;;;;;;;;;;5071369;28;20803;-78
2020/12/17 13:08:48;;;;;;;5.33;3.10;;;;;;;;;;5062538;28;20448;-76
2020/12/17 13:11:16;;;;;;;3.97;2.00;;;;;;;;;;5073170;28;20486;-77
2020/12/17 13:13:43;;;;;;;5.57;2.40;;;;;;;;;;5072552;28;20547;-76
2020/12/17 13:16:10;;;;;;;5.60;3.03;;;;;;;;;;5072626;28;20448;-76
2020/12/17 13:18:37;;;;;;;6.30;3.23;;;;;;;;;;5068377;28;20440;-77
2020/12/17 13:21:03;;;;;;;3.30;2.30;;;;;;;;;;5068655;28;20513;-77
2020/12/17 13:23:32;;;;;;;5.57;2.40;;;;;;;;;;5070495;28;20490;-78
2020/12/17 13:26:00;;;;;;;4.50;2.77;;;;;;;;;;5070652;28;20517;-77
2020/12/17 13:28:27;;;;;;;5.33;2.90;;;;;;;;;;5071003;28;20480;-79
2020/12/17 13:30:54;;;;;;;3.03;2.00;;;;;;;;;;5072523;28;20882;-78
2020/12/17 13:33:20;;;;;;;3.00;1.70;;;;;;;;;;5073034;28;20873;-77
2020/12/17 13:35:47;;;;;;;5.73;2.13;;;;;;;;;;5072776;28;20452;-77
2020/12/17 13:38:14;;;;;;;2.57;1.90;;;;;;;;;;5072200;28;20446;-77
2020/12/17 13:40:41;;;;;;;2.63;1.60;;;;;;;;;;5068163;28;20433;-78
2020/12/17 13:43:09;;;;;;;3.50;2.03;;;;;;;;;;5069377;28;20556;-79
2020/12/17 13:45:36;;;;;;;7.10;2.53;;;;;;;;;;5070481;28;20475;-79
2020/12/17 13:48:02;;;;;;;2.30;1.60;;;;;;;;;;5070402;28;20447;-78
2020/12/17 13:50:29;;;;;;;6.00;1.90;;;;;;;;;;5069606;28;20444;-77
2020/12/17 13:52:56;;;;;;;1.93;1.50;;;;;;;;;;5071966;28;20468;-77
2020/12/17 13:55:23;;;;;;;2.87;1.70;;;;;;;;;;5085534;28;20549;-79
2020/12/17 13:57:50;;;;;;;4.30;1.70;;;;;;;;;;5092670;28;20518;-77
2020/12/17 14:00:17;;;;;;;2.77;1.83;;;;;;;;;;5092229;28;20522;-78
2020/12/17 14:02:44;;;;;;;3.67;2.10;;;;;;;;;;5088025;28;20655;-79
2020/12/17 14:05:14;;;;;;;2.37;1.80;;;;;;;;;;5089139;28;20466;-79
2020/12/17 14:07:41;;;;;;;3.13;1.57;;;;;;;;;;5090298;28;20443;-76
2020/12/17 14:10:08;;;;;;;4.37;1.80;;;;;;;;;;5090420;28;20443;-77
2020/12/17 14:12:35;;;;;;;3.43;1.57;;;;;;;;;;5090515;28;20803;-80
2020/12/17 14:15:02;;;;;;;4.53;1.83;;;;;;;;;;5092088;28;20921;-78
2020/12/17 14:17:30;;;;;;;2.80;1.43;;;;;;;;;;5092510;28;20529;-80
2020/12/17 14:19:57;;;;;;;7.80;1.77;;;;;;;;;;5092502;28;20469;-79
2020/12/17 14:22:23;;;;;;;1.77;1.30;;;;;;;;;;5091744;28;20439;-79
2020/12/17 14:24:50;;;;;;;2.33;1.43;;;;;;;;;;5088107;28;20791;-79
2020/12/17 14:27:17;;;;;;;2.93;1.67;;;;;;;;;;5088910;28;20474;-79
2020/12/17 14:29:44;;;;;;;2.73;1.87;;;;;;;;;;5090513;28;20800;-78
2020/12/17 14:32:11;;;;;;;2.37;2.17;;;;;;;;;;5090224;28;20871;-80
2020/12/17 14:34:39;;;;;;;1.83;1.67;;;;;;;;;;5090317;28;20447;-79
2020/12/17 14:37:06;;;;;;;3.73;2.27;;;;;;;;;;5091623;28;20940;-77
2020/12/17 14:39:33;;;;;;;3.87;1.80;;;;;;;;;;5092420;28;20897;-80
2020/12/17 14:41:59;;;;;;;4.10;1.80;;;;;;;;;;5092216;28;20928;-77